Time;durP1;ratioP1;P1;durP2;ratioP2;P2;SDS_P1;SDS_P2;PMS_P1;PMS_P2;Temp;Humidity;BMP_temperature;BMP_pressure;BME280_temperature;BME280_humidity;BME280_pressure;Samples;Min_cycle;Max_cycle;Signal;HPM_P1;HPM_P2
2023/12/26 00:01:57;;;;;;;0.40;0.40;;;14.00;85.90;;;;;;5050639;28;20037;-59
2023/12/26 00:04:26;;;;;;;1.05;0.70;;;14.00;85.80;;;;;;5055044;28;20043;-61
2023/12/26 00:06:56;;;;;;;0.88;0.50;;;14.10;85.70;;;;;;5046829;28;20577;-61
2023/12/26 00:09:23;;;;;;;1.15;0.50;;;14.10;85.70;;;;;;5055151;28;20099;-61
2023/12/26 00:11:50;;;;;;;1.00;0.43;;;14.00;85.70;;;;;;5049701;28;20116;-62
2023/12/26 00:14:17;;;;;;;0.35;0.35;;;14.00;85.60;;;;;;5051444;28;20041;-60
2023/12/26 00:16:44;;;;;;;1.35;0.45;;;14.00;85.60;;;;;;5051048;28;20142;-60
2023/12/26 00:19:11;;;;;;;0.50;0.50;;;14.10;85.40;;;;;;5050470;28;20049;-61
2023/12/26 00:21:39;;;;;;;1.55;0.70;;;14.10;85.30;;;;;;5056871;28;20044;-63
2023/12/26 00:24:06;;;;;;;0.90;0.50;;;14.10;85.10;;;;;;5050430;28;20036;-60
2023/12/26 00:26:36;;;;;;;0.50;0.50;;;14.10;85.10;;;;;;5052044;28;20137;-60
2023/12/26 00:29:05;;;;;;;0.35;0.35;;;14.00;85.00;;;;;;5035064;28;20586;-60
2023/12/26 00:31:40;;;;;;;0.73;0.73;;;14.00;85.00;;;;;;5058098;28;20058;-61
2023/12/26 00:34:08;;;;;;;;;;;14.10;85.10;;;;;;5030949;28;20037;-61
2023/12/26 00:36:35;;;;;;;1.08;0.63;;;14.10;84.80;;;;;;5034313;28;19972;-60
2023/12/26 00:39:01;;;;;;;0.50;0.50;;;14.10;84.80;;;;;;5031256;28;20045;-61
2023/12/26 00:41:28;;;;;;;1.48;0.70;;;14.00;84.70;;;;;;5041630;28;20130;-62
2023/12/26 00:43:55;;;;;;;0.90;0.80;;;14.00;84.60;;;;;;5050547;28;20037;-61
2023/12/26 00:46:22;;;;;;;0.70;0.70;;;14.00;84.60;;;;;;5037634;28;20534;-62
2023/12/26 00:48:51;;;;;;;2.72;0.80;;;14.00;84.50;;;;;;5031427;28;20453;-61
2023/12/26 00:51:18;;;;;;;0.60;0.60;;;14.00;84.40;;;;;;5046188;28;20068;-61
2023/12/26 00:53:45;;;;;;;0.60;0.55;;;14.00;84.30;;;;;;5035384;28;20049;-61
2023/12/26 00:56:12;;;;;;;0.77;0.77;;;14.00;84.20;;;;;;5051960;28;20044;-61
2023/12/26 00:58:39;;;;;;;1.63;0.70;;;14.00;84.30;;;;;;5028093;28;20056;-60
2023/12/26 01:01:08;;;;;;;0.63;0.63;;;13.90;84.30;;;;;;5044913;28;20029;-61
2023/12/26 01:03:38;;;;;;;1.05;0.60;;;13.90;84.10;;;;;;5053949;28;20530;-61
2023/12/26 01:06:05;;;;;;;1.05;0.80;;;13.90;83.90;;;;;;5030812;28;20037;-61
2023/12/26 01:08:36;;;;;;;0.75;0.63;;;13.90;84.00;;;;;;5047511;28;20056;-62
2023/12/26 01:11:02;;;;;;;0.68;0.60;;;13.90;84.00;;;;;;5032930;28;20635;-60
2023/12/26 01:13:34;;;;;;;1.65;0.68;;;13.80;84.10;;;;;;5050273;28;20091;-60
2023/12/26 01:16:04;;;;;;;0.95;0.60;;;13.80;84.00;;;;;;5032922;28;20083;-60
2023/12/26 01:18:32;;;;;;;1.10;0.70;;;13.80;84.10;;;;;;5057592;28;20064;-62
2023/12/26 01:20:59;;;;;;;2.30;0.70;;;13.80;84.10;;;;;;5048762;28;20041;-60
2023/12/26 01:23:27;;;;;;;1.00;0.60;;;13.70;84.20;;;;;;5024286;28;20053;-60
2023/12/26 01:25:53;;;;;;;0.70;0.70;;;13.70;84.30;;;;;;5049299;28;20059;-60
2023/12/26 01:28:20;;;;;;;0.77;0.77;;;13.60;84.40;;;;;;5033506;28;20041;-61
2023/12/26 01:30:47;;;;;;;1.20;0.82;;;13.60;84.60;;;;;;5031496;28;20049;-61
2023/12/26 01:33:14;;;;;;;0.95;0.82;;;13.60;84.80;;;;;;5036205;28;20041;-61
2023/12/26 01:35:45;;;;;;;0.90;0.90;;;13.50;84.90;;;;;;5035258;28;20418;-60
2023/12/26 01:38:12;;;;;;;0.80;0.80;;;13.50;85.20;;;;;;5033425;28;20050;-62
2023/12/26 01:40:41;;;;;;;1.23;1.02;;;13.40;85.30;;;;;;5027890;28;20060;-58
2023/12/26 01:43:08;;;;;;;1.67;0.80;;;13.40;85.40;;;;;;5051793;28;20075;-62
2023/12/26 01:45:35;;;;;;;1.10;1.00;;;13.40;85.70;;;;;;5032870;28;20063;-60
2023/12/26 01:48:04;;;;;;;2.10;1.02;;;13.40;85.70;;;;;;5029939;28;20040;-61
2023/12/26 01:50:34;;;;;;;3.33;1.10;;;13.30;85.80;;;;;;5032696;28;20064;-62
2023/12/26 01:53:03;;;;;;;1.67;0.85;;;13.30;86.00;;;;;;5031138;28;20404;-58
2023/12/26 01:55:30;;;;;;;1.48;1.02;;;13.30;86.20;;;;;;5051075;28;20045;-62
2023/12/26 01:58:00;;;;;;;2.05;1.70;;;13.30;86.20;;;;;;5031629;28;20051;-61
2023/12/26 02:00:29;;;;;;;1.80;0.98;;;13.20;86.10;;;;;;5038651;28;20055;-61
2023/12/26 02:03:03;;;;;;;1.25;1.00;;;13.20;86.20;;;;;;5033617;28;20536;-61
2023/12/26 02:05:32;;;;;;;1.55;0.75;;;13.20;86.20;;;;;;5044899;28;20045;-63
2023/12/26 02:08:00;;;;;;;1.13;0.75;;;13.20;86.40;;;;;;5031080;28;20059;-63
2023/12/26 02:10:27;;;;;;;1.35;1.00;;;13.20;86.60;;;;;;5050419;28;20143;-61
2023/12/26 02:12:57;;;;;;;1.38;1.00;;;13.10;86.80;;;;;;5045536;28;20135;-60
2023/12/26 02:15:27;;;;;;;0.82;0.82;;;13.10;86.80;;;;;;5026684;28;20045;-60
2023/12/26 02:17:57;;;;;;;1.95;0.75;;;13.10;86.90;;;;;;5027974;28;20045;-60
2023/12/26 02:20:28;;;;;;;2.20;1.08;;;13.10;87.10;;;;;;5055655;28;20045;-62
2023/12/26 02:22:55;;;;;;;2.17;1.08;;;13.00;87.20;;;;;;5033526;28;20048;-61
2023/12/26 02:25:25;;;;;;;0.82;0.82;;;13.00;87.30;;;;;;5036748;28;20041;-61
2023/12/26 02:27:52;;;;;;;1.75;0.82;;;13.00;87.30;;;;;;5051184;28;20400;-60
2023/12/26 02:30:24;;;;;;;2.20;1.00;;;13.10;87.40;;;;;;5036212;28;20047;-62
2023/12/26 02:32:54;;;;;;;1.60;0.90;;;13.00;87.30;;;;;;5033901;28;20090;-60
2023/12/26 02:35:22;;;;;;;0.80;0.80;;;13.00;87.60;;;;;;5033314;28;20049;-59
2023/12/26 02:37:50;;;;;;;1.95;0.60;;;13.00;87.50;;;;;;5033978;28;20060;-61
2023/12/26 02:40:17;;;;;;;0.73;0.73;;;13.00;87.60;;;;;;5047895;28;20037;-61
2023/12/26 02:42:43;;;;;;;1.08;0.82;;;13.00;87.60;;;;;;5047331;28;20118;-62
2023/12/26 02:45:12;;;;;;;2.20;0.95;;;13.00;87.80;;;;;;5051896;28;20060;-61
2023/12/26 02:47:38;;;;;;;1.42;0.70;;;12.90;87.80;;;;;;5033246;28;20407;-61
2023/12/26 02:50:07;;;;;;;1.63;0.80;;;12.90;88.00;;;;;;5046169;28;20116;-62
2023/12/26 02:52:35;;;;;;;0.50;0.50;;;12.90;88.10;;;;;;5047389;28;20440;-61
2023/12/26 02:55:02;;;;;;;1.52;0.95;;;12.90;88.20;;;;;;5052920;28;20078;-60
2023/12/26 02:57:28;;;;;;;2.53;1.00;;;12.90;88.20;;;;;;5031248;28;20443;-61
2023/12/26 02:59:57;;;;;;;1.02;0.77;;;12.90;88.20;;;;;;5034295;28;20041;-60
2023/12/26 03:02:26;;;;;;;1.25;0.98;;;12.90;88.30;;;;;;5020922;28;20513;-62
2023/12/26 03:04:54;;;;;;;2.72;1.13;;;12.90;88.30;;;;;;5055836;28;20122;-60
2023/12/26 03:07:25;;;;;;;1.70;1.05;;;12.90;88.40;;;;;;5056261;28;20040;-61
2023/12/26 03:09:54;;;;;;;3.05;0.90;;;12.90;88.40;;;;;;5058514;28;20098;-61
2023/12/26 03:12:27;;;;;;;1.33;1.10;;;12.90;88.50;;;;;;5046798;28;20040;-61
2023/12/26 03:14:54;;;;;;;1.45;0.82;;;12.90;88.50;;;;;;5049951;28;20045;-63
2023/12/26 03:17:21;;;;;;;3.55;1.13;;;12.90;88.40;;;;;;5059337;28;20043;-60
2023/12/26 03:19:47;;;;;;;1.50;1.00;;;12.90;88.50;;;;;;5054394;28;20049;-62
2023/12/26 03:22:14;;;;;;;0.77;0.73;;;12.90;88.60;;;;;;5049519;28;20041;-61
2023/12/26 03:24:41;;;;;;;1.65;0.60;;;12.90;88.60;;;;;;5039134;28;20112;-61
2023/12/26 03:27:08;;;;;;;1.75;0.85;;;12.90;88.60;;;;;;5039168;28;20045;-61
2023/12/26 03:29:36;;;;;;;1.65;0.75;;;13.00;88.70;;;;;;5055473;28;20104;-61
2023/12/26 03:32:05;;;;;;;1.63;0.90;;;12.90;88.70;;;;;;5050945;28;20119;-61
2023/12/26 03:34:34;;;;;;;2.88;0.95;;;12.90;88.70;;;;;;5038156;28;20106;-61
2023/12/26 03:37:02;;;;;;;3.58;1.00;;;12.90;88.60;;;;;;5055074;28;20534;-61
2023/12/26 03:39:29;;;;;;;3.08;0.98;;;12.90;88.60;;;;;;5037740;28;20065;-62
2023/12/26 03:41:56;;;;;;;2.03;0.60;;;13.00;88.70;;;;;;5057541;28;20037;-61
2023/12/26 03:44:23;;;;;;;1.70;0.90;;;12.90;88.80;;;;;;5056068;28;20120;-61
2023/12/26 03:46:49;;;;;;;2.08;0.80;;;12.90;88.90;;;;;;5037247;28;20033;-60
2023/12/26 03:49:16;;;;;;;1.42;0.60;;;12.90;88.80;;;;;;5031428;28;20133;-61
2023/12/26 03:51:44;;;;;;;1.65;0.70;;;12.90;88.90;;;;;;5048308;28;20034;-61
2023/12/26 03:54:11;;;;;;;2.00;1.10;;;13.00;88.90;;;;;;5052514;28;20052;-59
2023/12/26 03:56:38;;;;;;;0.68;0.50;;;13.00;88.90;;;;;;5061420;28;20751;-61
2023/12/26 03:59:07;;;;;;;3.25;1.23;;;13.00;88.80;;;;;;5031254;28;20045;-62
2023/12/26 04:01:34;;;;;;;3.70;0.70;;;13.00;88.80;;;;;;5032429;28;20095;-61
2023/12/26 04:04:02;;;;;;;1.42;0.80;;;13.00;88.70;;;;;;5033851;28;20076;-62
2023/12/26 04:06:30;;;;;;;1.45;0.93;;;13.00;88.80;;;;;;5031937;28;20068;-61
2023/12/26 04:08:57;;;;;;;1.20;0.80;;;13.00;88.70;;;;;;5032692;28;20041;-61
2023/12/26 04:11:24;;;;;;;1.70;0.60;;;13.00;88.70;;;;;;5032678;28;20411;-61
2023/12/26 04:13:54;;;;;;;2.15;0.93;;;13.00;88.60;;;;;;5037772;28;20052;-62
2023/12/26 04:16:21;;;;;;;3.20;1.02;;;13.00;89.40;;;;;;5036074;28;20053;-61
2023/12/26 04:18:48;;;;;;;1.17;0.93;;;13.00;88.70;;;;;;5051698;28;20068;-60
2023/12/26 04:21:15;;;;;;;0.77;0.63;;;13.00;88.80;;;;;;5036124;28;20052;-62
2023/12/26 04:23:46;;;;;;;1.10;0.38;;;12.90;88.70;;;;;;5037444;28;20136;-61
2023/12/26 04:26:13;;;;;;;1.02;0.38;;;13.00;88.80;;;;;;5038984;28;20037;-62
2023/12/26 04:28:40;;;;;;;0.70;0.60;;;13.00;88.90;;;;;;5041786;28;20095;-60
2023/12/26 04:31:08;;;;;;;1.00;0.73;;;13.00;88.90;;;;;;5031869;28;20064;-61
2023/12/26 04:33:35;;;;;;;1.77;0.52;;;13.00;88.80;;;;;;5034356;28;20029;-61
2023/12/26 04:36:03;;;;;;;1.67;0.70;;;13.00;88.90;;;;;;5054989;28;20050;-62
2023/12/26 04:38:29;;;;;;;2.88;1.27;;;12.90;88.90;;;;;;5045993;28;20136;-63
2023/12/26 04:40:59;;;;;;;1.27;1.00;;;12.90;89.10;;;;;;5036739;28;20045;-59
2023/12/26 04:43:25;;;;;;;3.13;0.80;;;13.00;88.90;;;;;;5036814;28;20029;-60
2023/12/26 04:45:52;;;;;;;2.20;1.38;;;13.00;88.90;;;;;;5040519;28;20037;-58
2023/12/26 04:48:19;;;;;;;3.85;0.90;;;13.00;88.80;;;;;;5056432;28;20043;-60
2023/12/26 04:50:46;;;;;;;5.45;1.15;;;13.00;88.80;;;;;;5030681;28;20080;-59
2023/12/26 04:53:13;;;;;;;2.00;0.60;;;13.00;88.70;;;;;;5042748;28;20583;-58
2023/12/26 04:55:40;;;;;;;1.42;0.70;;;13.00;88.80;;;;;;5042487;28;20525;-58
2023/12/26 04:58:09;;;;;;;1.25;0.60;;;13.00;88.80;;;;;;5031002;28;20044;-59
2023/12/26 05:00:36;;;;;;;1.55;1.05;;;13.00;88.80;;;;;;5031030;28;20522;-59
2023/12/26 05:03:06;;;;;;;1.70;1.00;;;13.00;88.80;;;;;;5032839;28;20044;-59
2023/12/26 05:05:33;;;;;;;0.88;0.68;;;13.00;88.70;;;;;;5029905;28;20037;-59
2023/12/26 05:08:00;;;;;;;1.63;0.85;;;13.00;88.50;;;;;;5033102;28;20112;-59
2023/12/26 05:10:32;;;;;;;1.10;0.70;;;13.00;88.40;;;;;;5047072;28;20536;-59
2023/12/26 05:13:03;;;;;;;0.65;0.65;;;13.00;88.30;;;;;;5032559;28;20131;-58
2023/12/26 05:15:32;;;;;;;1.63;0.95;;;13.00;88.20;;;;;;5036213;28;20095;-59
2023/12/26 05:17:59;;;;;;;2.42;1.10;;;13.00;88.10;;;;;;5034384;28;20057;-59
2023/12/26 05:20:28;;;;;;;3.17;0.90;;;13.00;88.10;;;;;;5030052;28;20053;-59
2023/12/26 05:22:58;;;;;;;2.13;1.00;;;13.00;88.10;;;;;;5025385;28;20077;-58
2023/12/26 05:25:26;;;;;;;4.95;1.00;;;13.00;88.00;;;;;;5028953;28;20041;-58
2023/12/26 05:27:56;;;;;;;1.15;1.05;;;13.00;88.00;;;;;;5042995;28;20095;-58
2023/12/26 05:30:24;;;;;;;2.95;1.02;;;13.00;88.00;;;;;;5030691;28;20533;-59
2023/12/26 05:32:51;;;;;;;1.67;1.00;;;13.00;87.90;;;;;;5030989;28;20045;-59
2023/12/26 05:35:21;;;;;;;3.15;1.15;;;13.00;87.80;;;;;;5031936;28;20116;-59
2023/12/26 05:37:48;;;;;;;5.82;1.25;;;13.00;87.80;;;;;;5049158;28;20045;-59
2023/12/26 05:40:15;;;;;;;4.07;1.70;;;13.00;87.80;;;;;;5036024;28;20060;-59
2023/12/26 05:42:46;;;;;;;2.90;1.00;;;13.00;87.80;;;;;;5013319;28;20095;-59
2023/12/26 05:45:16;;;;;;;2.00;1.02;;;13.00;87.80;;;;;;5031122;28;20095;-59
2023/12/26 05:47:45;;;;;;;;;;;13.00;87.80;;;;;;5043338;28;20037;-59
2023/12/26 05:50:16;;;;;;;3.50;1.20;;;13.00;87.80;;;;;;5036360;28;20358;-59
2023/12/26 05:52:43;;;;;;;3.45;1.50;;;13.00;87.50;;;;;;5030831;28;20046;-59
2023/12/26 05:55:12;;;;;;;4.93;1.75;;;13.00;87.60;;;;;;5055450;28;20044;-59
2023/12/26 05:57:39;;;;;;;2.55;1.38;;;12.90;87.70;;;;;;5052515;28;20034;-59
2023/12/26 06:00:06;;;;;;;3.15;1.35;;;12.90;87.80;;;;;;5030975;28;20411;-59
2023/12/26 06:02:41;;;;;;;2.35;1.10;;;13.00;88.00;;;;;;5047723;28;20041;-59
2023/12/26 06:05:08;;;;;;;3.42;1.88;;;13.00;87.90;;;;;;5029590;28;20041;-59
2023/12/26 06:07:35;;;;;;;2.88;1.38;;;13.00;87.90;;;;;;5044537;28;20033;-59
2023/12/26 06:10:02;;;;;;;7.30;1.67;;;13.00;87.70;;;;;;5035302;28;20044;-60
2023/12/26 06:12:30;;;;;;;3.80;1.80;;;13.00;87.60;;;;;;5031489;28;20045;-60
2023/12/26 06:14:56;;;;;;;7.30;1.60;;;13.00;87.60;;;;;;5036685;28;20529;-59
2023/12/26 06:17:24;;;;;;;1.40;1.33;;;12.90;87.60;;;;;;5029159;28;20049;-60
2023/12/26 06:19:51;;;;;;;4.07;1.60;;;13.00;87.80;;;;;;5030773;28;20518;-60
2023/12/26 06:22:18;;;;;;;4.63;1.42;;;12.90;87.80;;;;;;5034454;28;20037;-58
2023/12/26 06:24:47;;;;;;;1.30;1.20;;;12.90;88.00;;;;;;5030187;28;20044;-59
2023/12/26 06:27:17;;;;;;;4.13;1.58;;;12.90;88.10;;;;;;5034414;28;20047;-60
2023/12/26 06:29:49;;;;;;;5.18;1.40;;;12.90;88.10;;;;;;5033181;28;20107;-60
2023/12/26 06:32:18;;;;;;;3.80;2.05;;;12.90;88.20;;;;;;5035953;28;20575;-59
2023/12/26 06:34:47;;;;;;;4.55;1.60;;;12.80;88.20;;;;;;5050596;28;20044;-60
2023/12/26 06:37:18;;;;;;;2.75;1.50;;;12.80;88.30;;;;;;5044159;28;20052;-60
2023/12/26 06:39:45;;;;;;;8.18;2.10;;;12.80;88.40;;;;;;5059113;28;20037;-61
2023/12/26 06:42:11;;;;;;;2.35;1.42;;;12.80;88.60;;;;;;5029082;28;20052;-61
2023/12/26 06:44:41;;;;;;;2.00;1.63;;;12.80;88.80;;;;;;5041968;28;20033;-61
2023/12/26 06:47:08;;;;;;;4.45;1.90;;;12.70;88.80;;;;;;5056993;28;20037;-60
2023/12/26 06:49:35;;;;;;;2.88;1.50;;;12.80;88.90;;;;;;5051432;28;20048;-59
2023/12/26 06:52:14;;;;;;;2.67;1.60;;;12.80;88.90;;;;;;5052106;28;20032;-59
2023/12/26 06:54:43;;;;;;;2.53;1.38;;;12.70;89.00;;;;;;5039250;28;20041;-60
2023/12/26 06:57:16;;;;;;;3.33;1.60;;;12.80;89.00;;;;;;5062989;28;20071;-58
2023/12/26 06:59:46;;;;;;;3.35;1.77;;;12.70;88.70;;;;;;5049017;28;20053;-60
2023/12/26 07:02:16;;;;;;;3.60;1.75;;;12.80;88.50;;;;;;5034525;28;20049;-60
2023/12/26 07:04:44;;;;;;;1.42;1.30;;;12.80;88.30;;;;;;5050653;28;20041;-60
2023/12/26 07:07:11;;;;;;;1.88;1.63;;;12.70;88.00;;;;;;5049696;28;20045;-59
2023/12/26 07:09:38;;;;;;;4.22;1.90;;;12.60;88.00;;;;;;5066310;28;20063;-59
2023/12/26 07:12:06;;;;;;;1.83;1.58;;;12.60;88.10;;;;;;5058941;28;20037;-59
2023/12/26 07:14:33;;;;;;;2.22;1.35;;;12.60;88.10;;;;;;5055074;28;20055;-59
2023/12/26 07:17:00;;;;;;;3.03;1.50;;;12.60;88.10;;;;;;5055125;28;20421;-60
2023/12/26 07:19:29;;;;;;;2.72;1.45;;;12.50;88.10;;;;;;5054872;28;20123;-60
2023/12/26 07:21:56;;;;;;;5.13;1.30;;;12.50;88.20;;;;;;5052279;28;20037;-60
2023/12/26 07:24:26;;;;;;;1.90;1.40;;;12.50;88.20;;;;;;5055426;28;20033;-60
2023/12/26 07:26:52;;;;;;;3.22;1.98;;;12.50;88.40;;;;;;5051469;28;20102;-59
2023/12/26 07:29:21;;;;;;;6.28;1.80;;;12.50;88.60;;;;;;5059329;28;20037;-58
2023/12/26 07:31:51;;;;;;;3.28;1.73;;;12.50;88.60;;;;;;5038847;28;20040;-59
2023/12/26 07:34:20;;;;;;;3.25;1.63;;;12.40;88.50;;;;;;5050435;28;20120;-60
2023/12/26 07:36:47;;;;;;;5.18;1.50;;;12.50;88.60;;;;;;5058909;28;20044;-60
2023/12/26 07:39:14;;;;;;;3.08;1.52;;;12.40;88.40;;;;;;5052367;28;20825;-60
2023/12/26 07:41:41;;;;;;;3.55;1.83;;;12.40;88.30;;;;;;5049175;28;20472;-60
2023/12/26 07:44:13;;;;;;;4.95;1.55;;;12.40;88.20;;;;;;5034596;28;20460;-60
2023/12/26 07:46:42;;;;;;;5.93;1.40;;;12.40;88.10;;;;;;5052022;28;20124;-60
2023/12/26 07:49:11;;;;;;;3.37;1.30;;;12.40;87.60;;;;;;5051819;28;20089;-59
2023/12/26 07:51:38;;;;;;;3.50;1.85;;;12.40;87.60;;;;;;5049686;28;20072;-59
2023/12/26 07:54:05;;;;;;;3.65;1.67;;;12.40;87.70;;;;;;5052163;28;20098;-60
2023/12/26 07:56:32;;;;;;;3.65;1.50;;;12.30;87.60;;;;;;5061589;28;20041;-59
2023/12/26 07:58:59;;;;;;;3.70;1.60;;;12.40;88.30;;;;;;5054185;28;20172;-59
2023/12/26 08:01:31;;;;;;;2.42;1.48;;;12.40;87.70;;;;;;5051268;28;20522;-59
2023/12/26 08:03:58;;;;;;;;;;;12.30;87.50;;;;;;5038457;28;20091;-60
2023/12/26 08:06:25;;;;;;;2.50;1.00;;;12.40;87.40;;;;;;5049366;28;19928;-59
2023/12/26 08:08:52;;;;;;;4.18;1.10;;;12.30;86.90;;;;;;5049373;28;20039;-59
2023/12/26 08:11:21;;;;;;;5.88;1.50;;;12.30;86.90;;;;;;5058767;28;20072;-58
2023/12/26 08:13:50;;;;;;;2.45;1.00;;;12.30;86.70;;;;;;5059454;28;20072;-60
2023/12/26 08:16:17;;;;;;;5.25;1.52;;;12.30;86.40;;;;;;5046680;28;20488;-59
2023/12/26 08:18:44;;;;;;;2.35;1.40;;;12.30;86.10;;;;;;5061306;28;20057;-59
2023/12/26 08:21:16;;;;;;;7.50;1.40;;;12.30;86.00;;;;;;5061444;28;20422;-58
2023/12/26 08:23:46;;;;;;;7.38;1.00;;;12.30;85.80;;;;;;5046924;28;20068;-59
2023/12/26 08:26:12;;;;;;;6.00;1.27;;;12.20;85.80;;;;;;5059403;28;20094;-60
2023/12/26 08:28:41;;;;;;;5.95;1.10;;;12.20;86.00;;;;;;5060339;28;20060;-57
2023/12/26 08:31:08;;;;;;;3.97;1.25;;;12.20;86.00;;;;;;5061775;28;20092;-59
2023/12/26 08:33:35;;;;;;;3.22;1.15;;;12.10;85.80;;;;;;5049522;28;20507;-59
2023/12/26 08:36:03;;;;;;;5.10;1.60;;;12.10;85.60;;;;;;5059039;28;20112;-59
2023/12/26 08:38:32;;;;;;;4.88;1.20;;;12.10;85.30;;;;;;5049795;28;20047;-59
2023/12/26 08:41:07;;;;;;;6.40;1.42;;;12.10;85.30;;;;;;5049462;28;20100;-58
2023/12/26 08:43:35;;;;;;;5.68;1.50;;;12.10;85.40;;;;;;5059507;28;20515;-59
2023/12/26 08:46:02;;;;;;;5.97;1.25;;;12.10;85.30;;;;;;5062260;28;20068;-58
2023/12/26 08:48:31;;;;;;;4.45;1.13;;;12.00;85.30;;;;;;5049144;28;20056;-59
2023/12/26 08:51:06;;;;;;;4.82;1.27;;;12.00;85.20;;;;;;5032302;28;20095;-59
2023/12/26 08:53:32;;;;;;;5.85;1.85;;;12.00;85.30;;;;;;5051189;28;20559;-59
2023/12/26 08:56:03;;;;;;;4.68;1.40;;;12.00;85.60;;;;;;5050970;28;20817;-59
2023/12/26 08:58:32;;;;;;;8.70;1.52;;;12.00;85.80;;;;;;5051979;28;20107;-59
2023/12/26 09:01:02;;;;;;;3.38;1.50;;;12.00;86.10;;;;;;5050295;28;20122;-59
2023/12/26 09:03:31;;;;;;;5.60;2.20;;;12.00;86.20;;;;;;5054670;28;20036;-58
2023/12/26 09:05:58;;;;;;;4.97;2.42;;;12.00;86.60;;;;;;5051028;28;20033;-59
2023/12/26 09:08:25;;;;;;;9.07;2.95;;;12.10;87.00;;;;;;5044693;28;20041;-59
2023/12/26 09:10:54;;;;;;;5.75;2.75;;;12.10;87.20;;;;;;5060326;28;20054;-59
2023/12/26 09:13:21;;;;;;;4.70;2.78;;;12.10;87.30;;;;;;5055588;28;20052;-59
2023/12/26 09:15:50;;;;;;;5.20;2.17;;;12.20;87.50;;;;;;5048384;28;20442;-58
2023/12/26 09:18:17;;;;;;;6.22;2.72;;;12.20;87.40;;;;;;5050780;28;20053;-58
2023/12/26 09:20:46;;;;;;;4.95;2.30;;;12.30;88.00;;;;;;5049566;28;20045;-58
2023/12/26 09:23:15;;;;;;;5.13;2.33;;;12.30;87.20;;;;;;5044891;28;20116;-59
2023/12/26 09:25:42;;;;;;;4.88;2.45;;;12.40;87.10;;;;;;5048467;28;20064;-58
2023/12/26 09:28:09;;;;;;;6.10;2.50;;;12.40;86.80;;;;;;5050855;28;20092;-59
2023/12/26 09:30:37;;;;;;;8.73;3.30;;;12.40;86.40;;;;;;5057071;28;20433;-58
2023/12/26 09:33:04;;;;;;;6.30;2.30;;;12.40;86.10;;;;;;5048849;28;20532;-59
2023/12/26 09:35:31;;;;;;;4.85;2.17;;;12.40;86.00;;;;;;5055333;28;20040;-57
2023/12/26 09:38:05;;;;;;;9.43;2.95;;;12.50;85.90;;;;;;5050381;28;20446;-58
2023/12/26 09:40:36;;;;;;;5.72;2.90;;;12.40;85.60;;;;;;5031696;28;20076;-59
2023/12/26 09:43:09;;;;;;;3.70;2.45;;;12.50;85.50;;;;;;5045716;28;20041;-59
2023/12/26 09:45:40;;;;;;;6.38;2.42;;;12.50;85.30;;;;;;5050708;28;20045;-59
2023/12/26 09:48:07;;;;;;;9.15;2.97;;;12.40;85.30;;;;;;5050532;28;20462;-57
2023/12/26 09:50:35;;;;;;;6.55;2.28;;;12.50;85.30;;;;;;5026959;28;20049;-58
2023/12/26 09:53:07;;;;;;;8.18;2.60;;;12.50;85.10;;;;;;5047428;28;20044;-58
2023/12/26 09:55:34;;;;;;;4.82;1.92;;;12.50;84.70;;;;;;5048023;28;20495;-59
2023/12/26 09:58:02;;;;;;;6.93;2.10;;;12.50;85.00;;;;;;5051941;28;20052;-58
2023/12/26 10:00:29;;;;;;;8.30;1.85;;;12.50;84.80;;;;;;5047135;28;20044;-58
2023/12/26 10:03:02;;;;;;;8.00;1.88;;;12.60;84.80;;;;;;5049278;28;20116;-57
2023/12/26 10:05:32;;;;;;;7.03;1.70;;;12.60;84.70;;;;;;5051286;28;20411;-58
2023/12/26 10:08:08;;;;;;;4.60;2.15;;;12.60;84.40;;;;;;5058356;28;20573;-59
2023/12/26 10:10:36;;;;;;;6.30;2.33;;;12.60;84.20;;;;;;5051923;28;20045;-58
2023/12/26 10:13:05;;;;;;;6.93;2.78;;;12.70;83.40;;;;;;5050798;28;20037;-58
2023/12/26 10:15:34;;;;;;;6.22;1.88;;;12.70;83.30;;;;;;5047369;28;20045;-59
2023/12/26 10:18:01;;;;;;;6.93;1.48;;;12.70;83.00;;;;;;5044536;28;20217;-56
2023/12/26 10:20:32;;;;;;;7.78;1.75;;;12.80;82.40;;;;;;5046155;28;20051;-59
2023/12/26 10:23:04;;;;;;;6.38;1.88;;;12.70;81.90;;;;;;5042152;28;20380;-59
2023/12/26 10:25:32;;;;;;;5.25;2.15;;;12.80;81.70;;;;;;5050916;28;20041;-58
2023/12/26 10:28:01;;;;;;;8.82;2.13;;;12.70;81.60;;;;;;5050380;28;20499;-58
2023/12/26 10:30:28;;;;;;;8.25;2.40;;;12.70;80.80;;;;;;5049748;28;20124;-58
2023/12/26 10:32:59;;;;;;;6.88;1.38;;;12.70;80.20;;;;;;5049793;28;20123;-58
2023/12/26 10:35:27;;;;;;;8.05;2.20;;;12.70;79.50;;;;;;5051109;28;20040;-59
2023/12/26 10:37:59;;;;;;;5.20;1.70;;;12.60;79.50;;;;;;5049137;28;20032;-58
2023/12/26 10:40:28;;;;;;;6.53;2.30;;;12.50;79.00;;;;;;5047824;28;20060;-58
2023/12/26 10:43:03;;;;;;;6.28;1.67;;;12.50;78.70;;;;;;5048907;28;20056;-58
2023/12/26 10:45:31;;;;;;;6.40;2.28;;;12.40;78.40;;;;;;5078705;22;20457;-63
2023/12/26 10:47:59;;;;;;;7.15;1.48;;;12.30;78.60;;;;;;5071613;28;20040;-63
2023/12/26 10:50:32;;;;;;;3.35;1.58;;;12.30;78.20;;;;;;5084653;28;20043;-63
2023/12/26 10:53:15;;;;;;;3.92;1.30;;;12.20;78.10;;;;;;5078662;28;20047;-63
2023/12/26 10:55:44;;;;;;;3.50;1.38;;;12.20;78.10;;;;;;5050327;28;20040;-62
2023/12/26 10:58:19;;;;;;;3.95;1.77;;;12.10;78.90;;;;;;5065266;28;20118;-62
2023/12/26 13:51:27;;;;;;;3.03;1.75;;;12.20;72.20;;;;;;5058699;28;20155;-62
2023/12/26 13:53:56;;;;;;;;;;;12.20;72.40;;;;;;5060733;28;20048;-60
2023/12/26 13:56:22;;;;;;;5.25;2.67;;;12.20;73.20;;;;;;5066475;28;19943;-61
2023/12/26 13:58:52;;;;;;;9.20;3.08;;;12.20;74.00;;;;;;5062932;28;20060;-62
2023/12/26 14:01:19;;;;;;;6.28;1.90;;;12.20;74.00;;;;;;5061061;28;20044;-61
2023/12/26 14:03:50;;;;;;;7.40;2.47;;;12.20;73.90;;;;;;5059705;28;20052;-61
2023/12/26 14:06:20;;;;;;;7.82;2.72;;;12.20;73.90;;;;;;5060488;28;20037;-61
2023/12/26 14:08:49;;;;;;;5.10;2.42;;;12.20;73.60;;;;;;5063102;28;20040;-61
2023/12/26 14:11:20;;;;;;;8.10;2.42;;;12.30;73.60;;;;;;5068899;28;20040;-61
2023/12/26 14:13:46;;;;;;;3.80;2.30;;;12.30;73.60;;;;;;5067564;28;20095;-61
2023/12/26 14:16:20;;;;;;;10.80;3.13;;;12.20;73.60;;;;;;5050895;28;20057;-62
2023/12/26 14:18:48;;;;;;;7.43;2.60;;;12.30;73.80;;;;;;5060430;28;20041;-61
2023/12/26 14:21:15;;;;;;;6.05;2.42;;;12.30;73.50;;;;;;5056877;28;20052;-61
2023/12/26 14:23:42;;;;;;;7.00;2.70;;;12.30;73.30;;;;;;5057540;28;20502;-61
2023/12/26 14:26:12;;;;;;;7.82;2.83;;;12.30;73.30;;;;;;5059389;28;20401;-62
2023/12/26 14:28:39;;;;;;;4.45;2.80;;;12.30;73.20;;;;;;5059814;28;20119;-61
2023/12/26 14:31:06;;;;;;;6.55;2.70;;;12.30;72.90;;;;;;5058500;28;20112;-61
2023/12/26 14:33:33;;;;;;;6.97;2.45;;;12.30;72.90;;;;;;5062905;28;20435;-61
2023/12/26 14:36:00;;;;;;;7.55;2.90;;;12.30;72.60;;;;;;5061637;28;20115;-61
2023/12/26 14:38:29;;;;;;;7.20;2.85;;;12.30;72.90;;;;;;5058519;28;20041;-61
2023/12/26 14:40:59;;;;;;;7.82;2.53;;;12.30;72.80;;;;;;5056349;28;20091;-61
2023/12/26 14:43:26;;;;;;;6.55;2.53;;;12.30;72.90;;;;;;5061724;28;20060;-61
2023/12/26 14:45:57;;;;;;;6.15;3.58;;;12.30;72.80;;;;;;5065462;28;20497;-60
2023/12/26 14:48:26;;;;;;;7.15;2.85;;;12.30;73.00;;;;;;5069263;28;20059;-61
2023/12/26 14:50:53;;;;;;;6.70;2.35;;;12.30;72.80;;;;;;5060294;28;20048;-61
2023/12/26 14:53:20;;;;;;;4.75;2.63;;;12.30;72.80;;;;;;5045200;28;20426;-62
2023/12/26 14:55:50;;;;;;;6.47;2.97;;;12.30;73.00;;;;;;5072804;28;20063;-61
2023/12/26 14:58:16;;;;;;;6.32;2.13;;;12.30;73.10;;;;;;5068327;28;20086;-61
2023/12/26 15:00:45;;;;;;;7.00;2.55;;;12.30;72.90;;;;;;5062692;28;20073;-61
2023/12/26 15:03:14;;;;;;;7.13;2.03;;;12.30;73.20;;;;;;5061345;28;20132;-61
2023/12/26 15:05:41;;;;;;;5.07;2.85;;;12.40;73.40;;;;;;5033588;28;20083;-62
2023/12/26 15:08:07;;;;;;;7.70;3.28;;;12.30;73.30;;;;;;5063215;28;20040;-61
2023/12/26 15:10:37;;;;;;;5.85;3.03;;;12.30;73.00;;;;;;5071522;28;20411;-61
2023/12/26 15:13:06;;;;;;;10.60;3.35;;;12.30;73.00;;;;;;5072660;28;20036;-60
2023/12/26 15:15:32;;;;;;;10.27;3.22;;;12.30;72.90;;;;;;5064736;28;20112;-61
2023/12/26 15:17:59;;;;;;;5.82;2.38;;;12.30;73.00;;;;;;5069276;28;20068;-62
2023/12/26 15:20:26;;;;;;;5.95;2.30;;;12.30;73.10;;;;;;5071363;28;20568;-62
2023/12/26 15:22:53;;;;;;;4.63;2.30;;;12.30;73.00;;;;;;5066606;28;20041;-61
2023/12/26 15:25:20;;;;;;;8.32;3.22;;;12.40;73.20;;;;;;5069618;28;20036;-61
2023/12/26 15:27:48;;;;;;;8.23;2.85;;;12.30;73.10;;;;;;5072838;28;20036;-62
2023/12/26 15:30:15;;;;;;;2.47;2.28;;;12.30;72.90;;;;;;5070580;28;20037;-60
2023/12/26 15:32:42;;;;;;;8.38;2.65;;;12.30;73.00;;;;;;5066426;28;20047;-62
2023/12/26 15:35:09;;;;;;;6.80;3.08;;;12.30;72.90;;;;;;5072510;28;20622;-61
2023/12/26 15:37:38;;;;;;;9.70;5.40;;;12.30;73.00;;;;;;5071596;28;20048;-61
2023/12/26 15:40:08;;;;;;;5.60;3.83;;;12.30;72.80;;;;;;5063349;28;20045;-62
2023/12/26 15:42:37;;;;;;;4.22;2.85;;;12.30;72.60;;;;;;5069786;28;20403;-62
2023/12/26 15:45:06;;;;;;;6.68;3.25;;;12.30;73.00;;;;;;5072537;28;20128;-62